sensor_id;sensor_type;location;lat;lon;timestamp;pressure;altitude;pressure_sealevel;temperature;humidity
72096;BME280;59968;51.084;16.748;2022-12-28T00:01:50;101093.52;;;3.46;70.59
72096;BME280;59968;51.084;16.748;2022-12-28T00:04:19;101093.30;;;3.45;70.62
72096;BME280;59968;51.084;16.748;2022-12-28T00:06:46;101089.40;;;3.42;70.72
72096;BME280;59968;51.084;16.748;2022-12-28T00:09:16;101090.64;;;3.42;70.84
72096;BME280;59968;51.084;16.748;2022-12-28T00:11:47;101085.73;;;3.41;70.84
72096;BME280;59968;51.084;16.748;2022-12-28T00:14:20;101086.66;;;3.40;70.89
72096;BME280;59968;51.084;16.748;2022-12-28T00:16:48;101083.95;;;3.40;70.95
72096;BME280;59968;51.084;16.748;2022-12-28T00:19:16;101080.11;;;3.39;71.05
72096;BME280;59968;51.084;16.748;2022-12-28T00:21:47;101078.89;;;3.40;70.95
72096;BME280;59968;51.084;16.748;2022-12-28T00:24:20;101082.02;;;3.39;71.05
72096;BME280;59968;51.084;16.748;2022-12-28T00:26:50;101080.79;;;3.39;71.05
72096;BME280;59968;51.084;16.748;2022-12-28T00:29:20;101077.16;;;3.38;71.02
72096;BME280;59968;51.084;16.748;2022-12-28T00:31:50;101072.95;;;3.36;71.14
72096;BME280;59968;51.084;16.748;2022-12-28T00:34:18;101073.64;;;3.37;71.09
72096;BME280;59968;51.084;16.748;2022-12-28T00:36:49;101077.75;;;3.36;71.24
72096;BME280;59968;51.084;16.748;2022-12-28T00:39:36;101072.54;;;3.36;71.27
72096;BME280;59968;51.084;16.748;2022-12-28T00:42:05;101069.08;;;3.36;71.31
72096;BME280;59968;51.084;16.748;2022-12-28T00:44:32;101075.02;;;3.37;71.20
72096;BME280;59968;51.084;16.748;2022-12-28T00:46:59;101070.19;;;3.35;71.26
72096;BME280;59968;51.084;16.748;2022-12-28T00:49:26;101068.55;;;3.36;71.31
72096;BME280;59968;51.084;16.748;2022-12-28T00:51:53;101062.39;;;3.34;71.27
72096;BME280;59968;51.084;16.748;2022-12-28T00:54:20;101059.92;;;3.35;71.27
72096;BME280;59968;51.084;16.748;2022-12-28T00:56:47;101056.19;;;3.33;71.40
72096;BME280;59968;51.084;16.748;2022-12-28T00:59:14;101050.33;;;3.29;71.50
72096;BME280;59968;51.084;16.748;2022-12-28T01:01:41;101050.23;;;3.28;71.75
72096;BME280;59968;51.084;16.748;2022-12-28T01:04:08;101042.77;;;3.25;71.68
72096;BME280;59968;51.084;16.748;2022-12-28T01:06:35;101041.71;;;3.25;71.80
72096;BME280;59968;51.084;16.748;2022-12-28T01:09:03;101038.32;;;3.25;71.80
72096;BME280;59968;51.084;16.748;2022-12-28T01:11:31;101036.00;;;3.28;71.84
72096;BME280;59968;51.084;16.748;2022-12-28T01:14:00;101033.08;;;3.28;71.85
72096;BME280;59968;51.084;16.748;2022-12-28T01:16:33;101029.08;;;3.30;71.82
72096;BME280;59968;51.084;16.748;2022-12-28T01:19:03;101024.73;;;3.28;71.86
72096;BME280;59968;51.084;16.748;2022-12-28T01:21:32;101019.84;;;3.27;71.94
72096;BME280;59968;51.084;16.748;2022-12-28T01:24:03;101017.30;;;3.27;72.01
72096;BME280;59968;51.084;16.748;2022-12-28T01:26:32;101022.11;;;3.27;72.02
72096;BME280;59968;51.084;16.748;2022-12-28T01:29:00;101020.66;;;3.27;72.02
72096;BME280;59968;51.084;16.748;2022-12-28T01:31:31;101024.23;;;3.28;72.11
72096;BME280;59968;51.084;16.748;2022-12-28T01:34:00;101017.27;;;3.27;72.00
72096;BME280;59968;51.084;16.748;2022-12-28T01:36:29;101023.23;;;3.28;72.22
72096;BME280;59968;51.084;16.748;2022-12-28T01:39:03;101015.27;;;3.27;72.09
72096;BME280;59968;51.084;16.748;2022-12-28T01:41:36;101014.77;;;3.29;72.10
72096;BME280;59968;51.084;16.748;2022-12-28T01:49:14;101014.79;;;3.29;71.96
72096;BME280;59968;51.084;16.748;2022-12-28T01:52:05;101014.35;;;3.28;72.01
72096;BME280;59968;51.084;16.748;2022-12-28T01:54:40;101011.13;;;3.27;71.97
72096;BME280;59968;51.084;16.748;2022-12-28T01:57:11;101006.77;;;3.26;71.93
72096;BME280;59968;51.084;16.748;2022-12-28T01:59:44;101002.09;;;3.27;71.96
72096;BME280;59968;51.084;16.748;2022-12-28T02:02:13;100994.42;;;3.29;71.80
72096;BME280;59968;51.084;16.748;2022-12-28T02:04:42;100986.25;;;3.27;71.81
72096;BME280;59968;51.084;16.748;2022-12-28T02:07:13;100981.25;;;3.29;71.81
72096;BME280;59968;51.084;16.748;2022-12-28T02:09:42;100972.42;;;3.24;71.90
72096;BME280;59968;51.084;16.748;2022-12-28T02:12:12;100976.45;;;3.27;71.99
72096;BME280;59968;51.084;16.748;2022-12-28T02:14:42;100975.94;;;3.27;71.98
72096;BME280;59968;51.084;16.748;2022-12-28T02:17:11;100971.31;;;3.30;71.90
72096;BME280;59968;51.084;16.748;2022-12-28T02:19:46;100955.58;;;3.30;71.83
72096;BME280;59968;51.084;16.748;2022-12-28T02:29:01;100945.89;;;3.33;71.87
72096;BME280;59968;51.084;16.748;2022-12-28T02:31:28;100949.70;;;3.37;71.85
72096;BME280;59968;51.084;16.748;2022-12-28T02:36:33;100938.23;;;3.41;71.57
72096;BME280;59968;51.084;16.748;2022-12-28T02:39:05;100926.98;;;3.39;71.48
72096;BME280;59968;51.084;16.748;2022-12-28T02:41:37;100927.63;;;3.37;71.61
72096;BME280;59968;51.084;16.748;2022-12-28T02:44:06;100929.04;;;3.34;71.66
72096;BME280;59968;51.084;16.748;2022-12-28T02:46:34;100927.58;;;3.36;71.72
72096;BME280;59968;51.084;16.748;2022-12-28T02:55:37;100914.95;;;3.33;72.05
72096;BME280;59968;51.084;16.748;2022-12-28T03:01:13;100906.45;;;3.31;72.48
72096;BME280;59968;51.084;16.748;2022-12-28T03:09:30;100898.39;;;3.35;73.02
72096;BME280;59968;51.084;16.748;2022-12-28T03:12:22;100881.77;;;3.32;73.15
72096;BME280;59968;51.084;16.748;2022-12-28T03:15:00;100901.52;;;3.49;73.20
72096;BME280;59968;51.084;16.748;2022-12-28T03:17:33;100894.32;;;3.53;73.10
72096;BME280;59968;51.084;16.748;2022-12-28T03:20:26;100886.70;;;3.60;73.10
72096;BME280;59968;51.084;16.748;2022-12-28T03:23:17;100871.05;;;3.61;73.13
72096;BME280;59968;51.084;16.748;2022-12-28T03:26:06;100868.66;;;3.68;73.15
72096;BME280;59968;51.084;16.748;2022-12-28T03:28:54;100873.05;;;3.73;73.04
72096;BME280;59968;51.084;16.748;2022-12-28T03:31:42;100871.67;;;3.79;73.08
72096;BME280;59968;51.084;16.748;2022-12-28T03:34:12;100863.66;;;3.83;72.92
72096;BME280;59968;51.084;16.748;2022-12-28T03:36:57;100860.91;;;3.87;72.83
72096;BME280;59968;51.084;16.748;2022-12-28T03:39:46;100853.42;;;3.90;72.67
72096;BME280;59968;51.084;16.748;2022-12-28T03:42:23;100850.37;;;3.92;72.60
72096;BME280;59968;51.084;16.748;2022-12-28T03:48:08;100849.51;;;3.92;72.49
72096;BME280;59968;51.084;16.748;2022-12-28T03:50:38;100850.53;;;3.92;72.46
72096;BME280;59968;51.084;16.748;2022-12-28T03:53:07;100847.62;;;3.90;72.41
72096;BME280;59968;51.084;16.748;2022-12-28T03:55:36;100845.90;;;3.88;72.56
72096;BME280;59968;51.084;16.748;2022-12-28T03:58:04;100842.52;;;3.86;72.59
72096;BME280;59968;51.084;16.748;2022-12-28T04:00:32;100836.24;;;3.85;72.65
72096;BME280;59968;51.084;16.748;2022-12-28T04:02:59;100837.14;;;3.87;72.63
72096;BME280;59968;51.084;16.748;2022-12-28T04:05:27;100830.20;;;3.88;72.55
72096;BME280;59968;51.084;16.748;2022-12-28T04:07:54;100824.73;;;3.90;72.49
72096;BME280;59968;51.084;16.748;2022-12-28T04:10:22;100821.14;;;3.90;72.50
72096;BME280;59968;51.084;16.748;2022-12-28T04:12:53;100819.27;;;3.90;72.34
72096;BME280;59968;51.084;16.748;2022-12-28T04:15:39;100817.02;;;3.90;72.44
72096;BME280;59968;51.084;16.748;2022-12-28T04:18:06;100811.94;;;3.89;72.27
72096;BME280;59968;51.084;16.748;2022-12-28T04:20:33;100814.64;;;3.88;72.38
72096;BME280;59968;51.084;16.748;2022-12-28T04:23:00;100812.10;;;3.85;72.33
72096;BME280;59968;51.084;16.748;2022-12-28T04:25:28;100812.56;;;3.88;72.37
72096;BME280;59968;51.084;16.748;2022-12-28T04:27:55;100805.44;;;3.87;72.40
72096;BME280;59968;51.084;16.748;2022-12-28T04:30:43;100799.63;;;3.85;72.43
72096;BME280;59968;51.084;16.748;2022-12-28T04:33:11;100792.79;;;3.83;72.36
72096;BME280;59968;51.084;16.748;2022-12-28T04:35:38;100789.04;;;3.83;72.23
72096;BME280;59968;51.084;16.748;2022-12-28T04:38:06;100785.63;;;3.83;72.29
72096;BME280;59968;51.084;16.748;2022-12-28T04:40:32;100778.04;;;3.82;72.37
72096;BME280;59968;51.084;16.748;2022-12-28T04:43:00;100776.85;;;3.82;72.18
72096;BME280;59968;51.084;16.748;2022-12-28T04:45:27;100772.52;;;3.82;72.23
72096;BME280;59968;51.084;16.748;2022-12-28T04:47:57;100767.12;;;3.81;72.23
72096;BME280;59968;51.084;16.748;2022-12-28T04:50:25;100765.73;;;3.84;72.26
72096;BME280;59968;51.084;16.748;2022-12-28T04:52:52;100757.35;;;3.84;72.27
72096;BME280;59968;51.084;16.748;2022-12-28T04:55:20;100753.55;;;3.84;72.28
72096;BME280;59968;51.084;16.748;2022-12-28T04:57:59;100752.81;;;3.85;72.30
72096;BME280;59968;51.084;16.748;2022-12-28T05:00:26;100748.96;;;3.86;72.28
72096;BME280;59968;51.084;16.748;2022-12-28T05:02:57;100745.92;;;3.85;72.25
72096;BME280;59968;51.084;16.748;2022-12-28T05:05:25;100745.84;;;3.82;72.28
72096;BME280;59968;51.084;16.748;2022-12-28T05:07:52;100750.01;;;3.84;72.37
72096;BME280;59968;51.084;16.748;2022-12-28T05:10:19;100745.04;;;3.84;72.32
72096;BME280;59968;51.084;16.748;2022-12-28T05:12:46;100739.27;;;3.83;72.37
72096;BME280;59968;51.084;16.748;2022-12-28T05:15:13;100733.50;;;3.84;72.31
72096;BME280;59968;51.084;16.748;2022-12-28T05:17:40;100714.27;;;3.76;72.30
72096;BME280;59968;51.084;16.748;2022-12-28T05:20:07;100703.07;;;3.69;72.39
72096;BME280;59968;51.084;16.748;2022-12-28T05:22:34;100719.33;;;3.86;72.51
72096;BME280;59968;51.084;16.748;2022-12-28T05:25:07;100713.77;;;3.89;72.56
72096;BME280;59968;51.084;16.748;2022-12-28T05:27:35;100712.02;;;3.91;72.43
72096;BME280;59968;51.084;16.748;2022-12-28T05:30:02;100712.81;;;3.94;72.44
72096;BME280;59968;51.084;16.748;2022-12-28T05:32:29;100707.58;;;3.97;72.39
72096;BME280;59968;51.084;16.748;2022-12-28T05:34:56;100705.54;;;3.99;72.31
72096;BME280;59968;51.084;16.748;2022-12-28T05:37:23;100705.73;;;4.01;72.29
72096;BME280;59968;51.084;16.748;2022-12-28T05:39:50;100697.06;;;4.00;72.28
72096;BME280;59968;51.084;16.748;2022-12-28T05:42:17;100694.88;;;4.03;72.29
72096;BME280;59968;51.084;16.748;2022-12-28T05:44:44;100700.17;;;4.05;72.26
72096;BME280;59968;51.084;16.748;2022-12-28T05:47:11;100694.88;;;4.07;72.27
72096;BME280;59968;51.084;16.748;2022-12-28T05:49:39;100691.90;;;4.10;72.14
72096;BME280;59968;51.084;16.748;2022-12-28T05:52:06;100687.11;;;4.12;72.12
72096;BME280;59968;51.084;16.748;2022-12-28T05:54:33;100686.45;;;4.15;72.02
72096;BME280;59968;51.084;16.748;2022-12-28T05:57:00;100686.36;;;4.16;71.90
72096;BME280;59968;51.084;16.748;2022-12-28T05:59:26;100691.87;;;4.18;71.92
72096;BME280;59968;51.084;16.748;2022-12-28T06:01:53;100691.73;;;4.19;71.87
72096;BME280;59968;51.084;16.748;2022-12-28T06:04:21;100685.27;;;4.15;71.85
72096;BME280;59968;51.084;16.748;2022-12-28T06:06:48;100699.46;;;4.24;71.86
72096;BME280;59968;51.084;16.748;2022-12-28T06:09:15;100698.45;;;4.26;71.73
72096;BME280;59968;51.084;16.748;2022-12-28T06:11:42;100690.77;;;4.26;71.72
72096;BME280;59968;51.084;16.748;2022-12-28T06:14:09;100685.80;;;4.24;71.70
72096;BME280;59968;51.084;16.748;2022-12-28T06:16:39;100688.54;;;4.20;71.71
72096;BME280;59968;51.084;16.748;2022-12-28T06:19:09;100694.80;;;4.19;71.70
72096;BME280;59968;51.084;16.748;2022-12-28T06:21:38;100694.17;;;4.19;71.66
72096;BME280;59968;51.084;16.748;2022-12-28T06:24:06;100690.47;;;4.16;71.67
72096;BME280;59968;51.084;16.748;2022-12-28T06:26:37;100688.98;;;4.17;71.71
72096;BME280;59968;51.084;16.748;2022-12-28T06:29:05;100689.89;;;4.18;71.69
72096;BME280;59968;51.084;16.748;2022-12-28T06:31:36;100689.21;;;4.20;71.56
72096;BME280;59968;51.084;16.748;2022-12-28T06:34:06;100694.06;;;4.23;71.57
72096;BME280;59968;51.084;16.748;2022-12-28T06:36:39;100695.14;;;4.27;71.50
72096;BME280;59968;51.084;16.748;2022-12-28T06:39:09;100672.50;;;4.16;71.39
72096;BME280;59968;51.084;16.748;2022-12-28T06:41:39;100690.88;;;4.34;71.40
72096;BME280;59968;51.084;16.748;2022-12-28T06:44:08;100692.44;;;4.39;71.08
72096;BME280;59968;51.084;16.748;2022-12-28T06:46:37;100690.85;;;4.43;71.04
72096;BME280;59968;51.084;16.748;2022-12-28T06:49:04;100691.67;;;4.47;71.00
72096;BME280;59968;51.084;16.748;2022-12-28T06:51:34;100688.46;;;4.49;70.88
72096;BME280;59968;51.084;16.748;2022-12-28T06:54:05;100687.34;;;4.52;70.82
72096;BME280;59968;51.084;16.748;2022-12-28T06:56:34;100683.94;;;4.51;70.73
72096;BME280;59968;51.084;16.748;2022-12-28T06:59:02;100682.65;;;4.52;70.66
72096;BME280;59968;51.084;16.748;2022-12-28T07:01:36;100677.77;;;4.51;70.63
72096;BME280;59968;51.084;16.748;2022-12-28T07:04:06;100675.36;;;4.51;70.59
72096;BME280;59968;51.084;16.748;2022-12-28T07:06:39;100676.13;;;4.51;70.61
72096;BME280;59968;51.084;16.748;2022-12-28T07:09:11;100674.09;;;4.50;70.68
72096;BME280;59968;51.084;16.748;2022-12-28T07:11:40;100671.54;;;4.52;70.74
72096;BME280;59968;51.084;16.748;2022-12-28T07:14:08;100662.77;;;4.47;70.69
72096;BME280;59968;51.084;16.748;2022-12-28T07:16:35;100674.34;;;4.55;70.68
72096;BME280;59968;51.084;16.748;2022-12-28T07:19:02;100671.27;;;4.56;70.75
72096;BME280;59968;51.084;16.748;2022-12-28T07:21:32;100673.33;;;4.58;70.73
72096;BME280;59968;51.084;16.748;2022-12-28T07:24:01;100660.84;;;4.58;70.75
72096;BME280;59968;51.084;16.748;2022-12-28T07:26:31;100655.73;;;4.56;70.84
72096;BME280;59968;51.084;16.748;2022-12-28T07:29:00;100652.46;;;4.55;70.86
72096;BME280;59968;51.084;16.748;2022-12-28T07:31:30;100653.20;;;4.54;70.96
72096;BME280;59968;51.084;16.748;2022-12-28T07:33:59;100652.66;;;4.54;71.05
72096;BME280;59968;51.084;16.748;2022-12-28T07:36:29;100654.74;;;4.59;71.03
72096;BME280;59968;51.084;16.748;2022-12-28T07:38:57;100655.41;;;4.64;70.91
72096;BME280;59968;51.084;16.748;2022-12-28T07:41:27;100651.69;;;4.69;70.83
72096;BME280;59968;51.084;16.748;2022-12-28T07:43:58;100658.11;;;4.75;70.85
72096;BME280;59968;51.084;16.748;2022-12-28T07:46:29;100655.79;;;4.82;70.64
72096;BME280;59968;51.084;16.748;2022-12-28T07:48:57;100653.61;;;4.86;70.60
72096;BME280;59968;51.084;16.748;2022-12-28T07:51:27;100649.55;;;4.87;70.53
72096;BME280;59968;51.084;16.748;2022-12-28T07:53:56;100652.83;;;4.89;70.45
72096;BME280;59968;51.084;16.748;2022-12-28T07:56:26;100656.56;;;4.91;70.43
72096;BME280;59968;51.084;16.748;2022-12-28T07:58:55;100661.49;;;4.95;70.41
72096;BME280;59968;51.084;16.748;2022-12-28T08:01:32;100667.85;;;5.00;70.35
72096;BME280;59968;51.084;16.748;2022-12-28T08:04:37;100672.73;;;5.10;70.13
72096;BME280;59968;51.084;16.748;2022-12-28T08:07:07;100669.96;;;5.21;70.01
72096;BME280;59968;51.084;16.748;2022-12-28T08:09:34;100663.34;;;5.33;69.59
72096;BME280;59968;51.084;16.748;2022-12-28T08:12:03;100656.30;;;5.44;69.27
72096;BME280;59968;51.084;16.748;2022-12-28T08:14:32;100639.20;;;5.49;68.81
72096;BME280;59968;51.084;16.748;2022-12-28T08:16:59;100651.39;;;5.64;68.39
72096;BME280;59968;51.084;16.748;2022-12-28T08:19:27;100649.80;;;5.73;68.10
72096;BME280;59968;51.084;16.748;2022-12-28T08:21:56;100641.70;;;5.82;67.77
72096;BME280;59968;51.084;16.748;2022-12-28T08:24:23;100644.02;;;5.91;67.47
72096;BME280;59968;51.084;16.748;2022-12-28T08:26:52;100637.48;;;5.98;67.27
72096;BME280;59968;51.084;16.748;2022-12-28T08:29:21;100639.34;;;6.05;67.08
72096;BME280;59968;51.084;16.748;2022-12-28T08:31:49;100640.45;;;6.13;66.80
72096;BME280;59968;51.084;16.748;2022-12-28T08:34:20;100642.96;;;6.19;66.65
72096;BME280;59968;51.084;16.748;2022-12-28T08:36:54;100635.30;;;6.26;66.26
72096;BME280;59968;51.084;16.748;2022-12-28T08:39:21;100626.52;;;6.32;66.12
72096;BME280;59968;51.084;16.748;2022-12-28T08:41:49;100627.16;;;6.37;66.18
72096;BME280;59968;51.084;16.748;2022-12-28T08:44:17;100631.59;;;6.42;66.23
72096;BME280;59968;51.084;16.748;2022-12-28T08:46:44;100627.58;;;6.46;65.87
72096;BME280;59968;51.084;16.748;2022-12-28T08:49:12;100627.80;;;6.49;65.81
72096;BME280;59968;51.084;16.748;2022-12-28T08:51:40;100618.14;;;6.51;65.62
72096;BME280;59968;51.084;16.748;2022-12-28T08:54:11;100615.02;;;6.53;65.26
72096;BME280;59968;51.084;16.748;2022-12-28T08:56:42;100607.84;;;6.55;65.17
72096;BME280;59968;51.084;16.748;2022-12-28T08:59:13;100612.09;;;6.57;65.15
72096;BME280;59968;51.084;16.748;2022-12-28T09:01:42;100613.08;;;6.55;65.37
72096;BME280;59968;51.084;16.748;2022-12-28T09:04:16;100609.64;;;6.54;65.14
72096;BME280;59968;51.084;16.748;2022-12-28T09:06:45;100609.44;;;6.54;64.76
72096;BME280;59968;51.084;16.748;2022-12-28T09:09:16;100609.75;;;6.56;64.48
72096;BME280;59968;51.084;16.748;2022-12-28T09:11:47;100613.20;;;6.59;64.17
72096;BME280;59968;51.084;16.748;2022-12-28T09:14:15;100612.15;;;6.63;64.22
72096;BME280;59968;51.084;16.748;2022-12-28T09:16:51;100605.24;;;6.67;64.22
72096;BME280;59968;51.084;16.748;2022-12-28T09:19:20;100602.65;;;6.72;64.09
72096;BME280;59968;51.084;16.748;2022-12-28T09:21:48;100595.45;;;6.75;63.95
72096;BME280;59968;51.084;16.748;2022-12-28T09:24:18;100594.75;;;6.78;63.82
72096;BME280;59968;51.084;16.748;2022-12-28T09:26:47;100593.65;;;6.79;63.85
72096;BME280;59968;51.084;16.748;2022-12-28T09:29:17;100590.25;;;6.82;63.67
72096;BME280;59968;51.084;16.748;2022-12-28T09:31:45;100591.59;;;6.84;63.83
72096;BME280;59968;51.084;16.748;2022-12-28T09:34:13;100580.00;;;6.88;63.76
72096;BME280;59968;51.084;16.748;2022-12-28T09:37:03;100571.19;;;6.92;63.66
72096;BME280;59968;51.084;16.748;2022-12-28T09:39:30;100567.02;;;6.93;63.53
72096;BME280;59968;51.084;16.748;2022-12-28T09:42:02;100569.77;;;6.95;63.43
72096;BME280;59968;51.084;16.748;2022-12-28T09:52:33;100548.85;;;6.99;62.93
72096;BME280;59968;51.084;16.748;2022-12-28T09:55:10;100543.73;;;6.99;62.83
72096;BME280;59968;51.084;16.748;2022-12-28T09:57:47;100535.52;;;6.99;63.09
72096;BME280;59968;51.084;16.748;2022-12-28T10:00:20;100535.29;;;6.99;62.86
72096;BME280;59968;51.084;16.748;2022-12-28T10:03:01;100527.52;;;6.98;62.83
72096;BME280;59968;51.084;16.748;2022-12-28T10:05:29;100526.42;;;6.97;63.01
72096;BME280;59968;51.084;16.748;2022-12-28T10:07:58;100522.13;;;6.97;63.17
72096;BME280;59968;51.084;16.748;2022-12-28T10:10:26;100514.68;;;6.96;63.17
72096;BME280;59968;51.084;16.748;2022-12-28T10:12:58;100515.74;;;6.96;63.28
72096;BME280;59968;51.084;16.748;2022-12-28T10:15:28;100512.30;;;6.99;63.31
72096;BME280;59968;51.084;16.748;2022-12-28T10:17:57;100511.30;;;7.00;63.32
72096;BME280;59968;51.084;16.748;2022-12-28T10:20:25;100510.30;;;7.05;62.94
72096;BME280;59968;51.084;16.748;2022-12-28T10:22:55;100508.84;;;7.05;62.85
72096;BME280;59968;51.084;16.748;2022-12-28T10:25:25;100512.34;;;7.05;63.09
72096;BME280;59968;51.084;16.748;2022-12-28T10:27:54;100507.92;;;7.06;63.06
72096;BME280;59968;51.084;16.748;2022-12-28T10:30:24;100512.47;;;7.12;63.55
72096;BME280;59968;51.084;16.748;2022-12-28T10:32:56;100503.81;;;7.19;63.92
72096;BME280;59968;51.084;16.748;2022-12-28T10:35:51;100501.37;;;7.26;63.96
72096;BME280;59968;51.084;16.748;2022-12-28T10:38:26;100494.59;;;7.30;63.88
72096;BME280;59968;51.084;16.748;2022-12-28T10:41:03;100492.33;;;7.35;63.72
72096;BME280;59968;51.084;16.748;2022-12-28T10:43:35;100487.58;;;7.42;63.48
72096;BME280;59968;51.084;16.748;2022-12-28T10:46:06;100476.00;;;7.50;63.51
72096;BME280;59968;51.084;16.748;2022-12-28T10:48:48;100470.25;;;7.57;63.04
72096;BME280;59968;51.084;16.748;2022-12-28T10:51:25;100474.60;;;7.63;63.09
72096;BME280;59968;51.084;16.748;2022-12-28T10:53:56;100469.71;;;7.69;62.89
72096;BME280;59968;51.084;16.748;2022-12-28T10:56:30;100463.77;;;7.75;63.08
72096;BME280;59968;51.084;16.748;2022-12-28T10:59:23;100457.39;;;7.81;62.93
72096;BME280;59968;51.084;16.748;2022-12-28T11:02:23;100451.82;;;7.87;62.34
72096;BME280;59968;51.084;16.748;2022-12-28T11:04:59;100446.48;;;7.92;62.40
72096;BME280;59968;51.084;16.748;2022-12-28T11:07:38;100445.14;;;7.96;62.51
72096;BME280;59968;51.084;16.748;2022-12-28T11:12:54;100430.98;;;8.10;62.07
72096;BME280;59968;51.084;16.748;2022-12-28T11:15:30;100430.44;;;8.15;61.94
72096;BME280;59968;51.084;16.748;2022-12-28T11:18:00;100420.49;;;8.21;61.79
72096;BME280;59968;51.084;16.748;2022-12-28T11:20:37;100417.09;;;8.25;61.36
72096;BME280;59968;51.084;16.748;2022-12-28T11:23:07;100416.80;;;8.29;61.34
72096;BME280;59968;51.084;16.748;2022-12-28T11:25:35;100412.48;;;8.34;60.95
72096;BME280;59968;51.084;16.748;2022-12-28T11:28:07;100404.58;;;8.37;61.20
72096;BME280;59968;51.084;16.748;2022-12-28T11:30:38;100392.89;;;8.39;61.48
72096;BME280;59968;51.084;16.748;2022-12-28T11:33:36;100382.00;;;8.35;61.34
72096;BME280;59968;51.084;16.748;2022-12-28T11:36:13;100385.43;;;8.41;61.56
72096;BME280;59968;51.084;16.748;2022-12-28T11:38:43;100378.11;;;8.42;61.43
72096;BME280;59968;51.084;16.748;2022-12-28T11:44:05;100357.20;;;8.48;61.00
72096;BME280;59968;51.084;16.748;2022-12-28T11:46:37;100350.10;;;8.51;60.97
72096;BME280;59968;51.084;16.748;2022-12-28T11:49:28;100341.14;;;8.54;60.88
72096;BME280;59968;51.084;16.748;2022-12-28T11:55:00;100332.68;;;8.59;61.05
72096;BME280;59968;51.084;16.748;2022-12-28T11:57:46;100325.50;;;8.62;60.99
72096;BME280;59968;51.084;16.748;2022-12-28T12:05:51;100317.80;;;8.69;61.22
72096;BME280;59968;51.084;16.748;2022-12-28T12:10:49;100303.76;;;8.33;61.99
72096;BME280;59968;51.084;16.748;2022-12-28T12:13:43;100302.37;;;8.46;62.07
72096;BME280;59968;51.084;16.748;2022-12-28T12:16:20;100300.84;;;8.69;61.32
72096;BME280;59968;51.084;16.748;2022-12-28T12:18:52;100297.80;;;8.71;61.11
72096;BME280;59968;51.084;16.748;2022-12-28T12:21:30;100294.27;;;8.73;61.11
72096;BME280;59968;51.084;16.748;2022-12-28T12:26:36;100297.86;;;8.69;61.53
72096;BME280;59968;51.084;16.748;2022-12-28T12:29:16;100281.86;;;8.67;61.25
72096;BME280;59968;51.084;16.748;2022-12-28T12:31:54;100285.90;;;8.50;61.70
72096;BME280;59968;51.084;16.748;2022-12-28T12:34:52;100293.73;;;8.72;61.18
72096;BME280;59968;51.084;16.748;2022-12-28T12:37:20;100285.14;;;8.83;60.69
72096;BME280;59968;51.084;16.748;2022-12-28T12:51:39;100260.45;;;8.99;60.27
72096;BME280;59968;51.084;16.748;2022-12-28T13:05:17;100250.42;;;8.95;60.61
72096;BME280;59968;51.084;16.748;2022-12-28T13:07:47;100247.52;;;8.81;61.01
72096;BME280;59968;51.084;16.748;2022-12-28T13:10:20;100245.65;;;8.61;61.65
72096;BME280;59968;51.084;16.748;2022-12-28T13:12:54;100243.09;;;8.60;62.03
72096;BME280;59968;51.084;16.748;2022-12-28T13:15:23;100246.00;;;8.60;62.17
72096;BME280;59968;51.084;16.748;2022-12-28T13:18:03;100242.20;;;8.61;62.15
72096;BME280;59968;51.084;16.748;2022-12-28T13:20:57;100238.44;;;8.63;62.17
72096;BME280;59968;51.084;16.748;2022-12-28T13:23:27;100239.33;;;8.64;62.08
72096;BME280;59968;51.084;16.748;2022-12-28T13:25:58;100221.56;;;8.54;62.25
72096;BME280;59968;51.084;16.748;2022-12-28T13:28:35;100239.97;;;8.67;62.47
72096;BME280;59968;51.084;16.748;2022-12-28T13:31:12;100237.10;;;8.70;62.30
72096;BME280;59968;51.084;16.748;2022-12-28T13:33:54;100235.84;;;8.70;62.12
72096;BME280;59968;51.084;16.748;2022-12-28T13:36:32;100232.77;;;8.70;62.18
72096;BME280;59968;51.084;16.748;2022-12-28T13:39:17;100229.95;;;8.70;62.20
72096;BME280;59968;51.084;16.748;2022-12-28T13:41:54;100225.78;;;8.70;62.41
72096;BME280;59968;51.084;16.748;2022-12-28T13:49:44;100209.81;;;8.67;62.43
72096;BME280;59968;51.084;16.748;2022-12-28T13:52:19;100213.42;;;8.71;62.33
72096;BME280;59968;51.084;16.748;2022-12-28T13:54:53;100209.42;;;8.70;62.47
72096;BME280;59968;51.084;16.748;2022-12-28T13:57:25;100215.58;;;8.69;62.47
72096;BME280;59968;51.084;16.748;2022-12-28T14:00:17;100215.80;;;8.66;62.50
72096;BME280;59968;51.084;16.748;2022-12-28T14:02:46;100221.38;;;8.63;62.55
72096;BME280;59968;51.084;16.748;2022-12-28T14:05:19;100222.79;;;8.61;62.64
72096;BME280;59968;51.084;16.748;2022-12-28T14:07:49;100219.89;;;8.59;62.71
72096;BME280;59968;51.084;16.748;2022-12-28T14:10:17;100225.56;;;8.58;62.92
72096;BME280;59968;51.084;16.748;2022-12-28T14:12:47;100223.70;;;8.56;62.96
72096;BME280;59968;51.084;16.748;2022-12-28T14:15:15;100222.52;;;8.56;63.01
72096;BME280;59968;51.084;16.748;2022-12-28T14:17:46;100222.95;;;8.55;63.00
72096;BME280;59968;51.084;16.748;2022-12-28T14:20:15;100217.64;;;8.55;62.93
72096;BME280;59968;51.084;16.748;2022-12-28T14:22:43;100212.36;;;8.53;63.05
72096;BME280;59968;51.084;16.748;2022-12-28T14:25:12;100203.30;;;8.45;63.11
72096;BME280;59968;51.084;16.748;2022-12-28T14:27:52;100213.28;;;8.47;63.19
72096;BME280;59968;51.084;16.748;2022-12-28T14:30:25;100211.27;;;8.46;63.37
72096;BME280;59968;51.084;16.748;2022-12-28T14:32:53;100214.48;;;8.45;63.47
72096;BME280;59968;51.084;16.748;2022-12-28T14:35:23;100207.15;;;8.41;63.48
72096;BME280;59968;51.084;16.748;2022-12-28T14:37:53;100212.55;;;8.46;63.53
72096;BME280;59968;51.084;16.748;2022-12-28T14:42:54;100201.80;;;8.42;63.53
72096;BME280;59968;51.084;16.748;2022-12-28T14:45:41;100197.86;;;8.39;63.46